Thornhurst, Pennsylvania
Current Conditions -  °F | °C
As of 12:54 AM on Wednesday 22 Oct 2014 (Local Time) from KAVP Reporting Station
Haze Haze  
Wind Chill: 52°   Ceiling: 3900
Heat Index: 52°   Visibility: 6mi
Dew Point: 49°   Wind: 0mph
Humidity: 89%   Direction: NA
Pressure: 29.93"   Gusts: NA
Location:  41.243°N, 75.5491°W
Report Text: KAVP 220454Z 00000KT 6SM BR OVC039 11/09 A2993 RMK AO2 SLP134 T01110094 401560100
Loading
Personal Weather Stations






























Interactive Weather Map
Tropical Storm Tracking
New forecast layout! Learn more

10-Day Weather Forecast

Advertisements
Track Severe Weather on mobile